Time,TemperatureF,DewpointF,PressureIn,WindDirection,WindDirectionDegrees,WindSpeedMPH,WindSpeedGustMPH,Humidity,HourlyPrecipIn,Conditions,Clouds,dailyrainin,SoftwareType,DateUTC
2013-01-16 00:01:00,68.5,64.8,30.06,SSW,202,0.0,2.0,88,0.00,,,0.00,meteohub,2013-01-16 05:01:00,
2013-01-16 00:03:00,68.5,64.8,30.06,SSW,202,1.0,2.0,88,0.00,,,0.00,meteohub,2013-01-16 05:03:00,
2013-01-16 00:04:00,68.5,64.8,30.06,SSW,202,0.0,2.0,88,0.00,,,0.00,meteohub,2013-01-16 05:04:00,
2013-01-16 00:08:00,68.4,64.6,30.06,SSW,193,0.0,2.0,88,0.00,,,0.00,meteohub,2013-01-16 05:08:00,
2013-01-16 00:13:00,68.5,64.8,30.06,SE,136,0.0,2.0,88,0.00,,,0.00,meteohub,2013-01-16 05:13:00,
2013-01-16 00:19:00,68.5,64.8,30.06,SE,135,0.0,5.0,88,0.00,,,0.00,meteohub,2013-01-16 05:19:00,
2013-01-16 00:24:00,68.9,65.1,30.06,ESE,123,1.0,5.0,88,0.00,,,0.00,meteohub,2013-01-16 05:24:00,
2013-01-16 00:29:00,69.3,65.5,30.06,East,84,2.0,5.0,88,0.00,,,0.00,meteohub,2013-01-16 05:29:00,
2013-01-16 00:34:00,69.6,65.7,30.06,East,84,2.0,5.0,87,0.00,,,0.00,meteohub,2013-01-16 05:34:00,
2013-01-16 00:39:00,70.0,65.7,30.06,East,81,2.0,7.0,86,0.00,,,0.00,meteohub,2013-01-16 05:39:00,
2013-01-16 00:44:00,70.0,65.3,30.06,East,81,1.0,8.0,85,0.00,,,0.00,meteohub,2013-01-16 05:44:00,
2013-01-16 00:49:00,70.0,65.3,30.06,East,81,1.0,8.0,85,0.00,,,0.00,meteohub,2013-01-16 05:49:00,
2013-01-16 00:54:00,69.6,64.9,30.06,East,81,0.0,8.0,85,0.00,,,0.00,meteohub,2013-01-16 05:54:00,
2013-01-16 01:00:00,69.3,64.6,30.06,East,81,0.0,6.0,85,0.00,,,0.00,meteohub,2013-01-16 06:00:00,
2013-01-16 01:05:00,68.9,64.2,30.06,East,81,0.0,3.0,85,0.00,,,0.00,meteohub,2013-01-16 06:05:00,
2013-01-16 01:10:00,68.5,64.2,30.06,East,81,0.0,1.0,86,0.00,,,0.00,meteohub,2013-01-16 06:10:00,
2013-01-16 01:15:00,68.4,64.4,30.06,East,81,0.0,0.0,87,0.00,,,0.00,meteohub,2013-01-16 06:15:00,
2013-01-16 01:20:00,68.2,64.2,30.06,East,81,0.0,0.0,87,0.00,,,0.00,meteohub,2013-01-16 06:20:00,
2013-01-16 01:25:00,67.8,64.2,30.06,East,81,0.0,0.0,88,0.00,,,0.00,meteohub,2013-01-16 06:25:00,
2013-01-16 01:30:00,67.6,64.0,30.06,East,81,0.0,0.0,88,0.00,,,0.00,meteohub,2013-01-16 06:30:00,
2013-01-16 01:35:00,67.5,63.9,30.06,East,81,0.0,0.0,88,0.00,,,0.00,meteohub,2013-01-16 06:35:00,
2013-01-16 01:41:00,67.3,63.9,30.06,East,81,0.0,0.0,89,0.00,,,0.00,meteohub,2013-01-16 06:41:00,
2013-01-16 01:46:00,67.1,63.7,30.06,East,81,0.0,2.0,89,0.00,,,0.00,meteohub,2013-01-16 06:46:00,
2013-01-16 01:51:00,67.1,64.0,30.06,East,81,0.0,2.0,90,0.00,,,0.00,meteohub,2013-01-16 06:51:00,
2013-01-16 01:56:00,66.9,63.9,30.06,East,81,0.0,2.0,90,0.00,,,0.00,meteohub,2013-01-16 06:56:00,
2013-01-16 02:01:00,66.7,63.3,30.06,East,81,0.0,0.0,89,0.00,,,0.00,meteohub,2013-01-16 07:01:00,
2013-01-16 02:06:00,66.6,63.5,30.06,East,81,0.0,0.0,90,0.00,,,0.00,meteohub,2013-01-16 07:06:00,
2013-01-16 02:12:00,66.6,63.5,30.06,East,81,0.0,0.0,90,0.00,,,0.00,meteohub,2013-01-16 07:12:00,
2013-01-16 02:17:00,66.6,63.9,30.06,East,81,0.0,2.0,91,0.00,,,0.00,meteohub,2013-01-16 07:17:00,
2013-01-16 02:22:00,66.6,63.9,30.06,East,81,0.0,2.0,91,0.00,,,0.00,meteohub,2013-01-16 07:22:00,
2013-01-16 02:27:00,66.6,63.9,30.06,East,81,0.0,2.0,91,0.00,,,0.00,meteohub,2013-01-16 07:27:00,
2013-01-16 02:32:00,66.7,64.0,30.06,East,81,0.0,3.0,91,0.00,,,0.00,meteohub,2013-01-16 07:32:00,
2013-01-16 02:37:00,67.3,64.9,30.06,East,81,2.0,3.0,92,0.00,,,0.00,meteohub,2013-01-16 07:37:00,
2013-01-16 02:42:00,68.2,66.0,30.05,East,81,2.0,6.0,93,0.00,,,0.00,meteohub,2013-01-16 07:42:00,
2013-01-16 02:47:00,68.5,66.4,30.05,East,81,0.0,7.0,93,0.00,,,0.00,meteohub,2013-01-16 07:47:00,
2013-01-16 02:52:00,69.1,66.9,30.05,ENE,76,2.0,7.0,93,0.00,,,0.00,meteohub,2013-01-16 07:52:00,
2013-01-16 02:57:00,69.3,67.1,30.05,East,96,8.0,9.0,93,0.00,,,0.00,meteohub,2013-01-16 07:57:00,
2013-01-16 03:02:00,69.4,67.3,30.05,East,92,8.0,9.0,93,0.00,,,0.00,meteohub,2013-01-16 08:02:00,
2013-01-16 03:07:00,69.6,67.5,30.05,East,88,7.0,9.0,93,0.00,,,0.00,meteohub,2013-01-16 08:07:00,
2013-01-16 03:12:00,69.6,67.3,30.05,East,97,9.0,13.0,92,0.00,,,0.00,meteohub,2013-01-16 08:12:00,
2013-01-16 03:17:00,69.6,67.3,30.05,East,92,7.0,13.0,92,0.00,,,0.00,meteohub,2013-01-16 08:17:00,
2013-01-16 03:22:00,69.6,67.3,30.05,East,85,7.0,13.0,92,0.00,,,0.00,meteohub,2013-01-16 08:22:00,
2013-01-16 03:27:00,69.8,67.6,30.05,East,94,9.0,11.0,93,0.00,,,0.00,meteohub,2013-01-16 08:27:00,
2013-01-16 03:32:00,69.8,67.6,30.05,East,90,6.0,11.0,93,0.00,,,0.00,meteohub,2013-01-16 08:32:00,
2013-01-16 03:38:00,69.6,67.3,30.05,East,92,10.0,11.0,92,0.00,,,0.00,meteohub,2013-01-16 08:38:00,
2013-01-16 03:43:00,69.6,67.5,30.05,East,96,7.0,11.0,93,0.00,,,0.00,meteohub,2013-01-16 08:43:00,
2013-01-16 03:48:00,69.4,67.3,30.05,East,94,9.0,11.0,93,0.00,,,0.00,meteohub,2013-01-16 08:48:00,
2013-01-16 03:53:00,69.4,67.3,30.05,East,93,8.0,13.0,93,0.00,,,0.00,meteohub,2013-01-16 08:53:00,
2013-01-16 03:58:00,69.4,67.3,30.05,East,94,7.0,13.0,93,0.00,,,0.00,meteohub,2013-01-16 08:58:00,
2013-01-16 04:03:00,69.3,67.1,30.05,East,96,6.0,13.0,93,0.00,,,0.00,meteohub,2013-01-16 09:03:00,
2013-01-16 04:08:00,69.3,67.1,30.05,East,94,6.0,13.0,93,0.00,,,0.00,meteohub,2013-01-16 09:08:00,
2013-01-16 04:14:00,69.1,66.9,30.05,East,90,8.0,11.0,93,0.00,,,0.00,meteohub,2013-01-16 09:14:00,
2013-01-16 04:19:00,69.1,66.9,30.05,East,91,6.0,13.0,93,0.00,,,0.00,meteohub,2013-01-16 09:19:00,
2013-01-16 04:24:00,69.1,66.9,30.05,East,90,8.0,13.0,93,0.00,,,0.00,meteohub,2013-01-16 09:24:00,
2013-01-16 04:29:00,69.1,67.3,30.04,East,92,9.0,13.0,94,0.00,,,0.00,meteohub,2013-01-16 09:29:00,
2013-01-16 04:34:00,69.1,67.3,30.04,East,89,6.0,11.0,94,0.00,,,0.00,meteohub,2013-01-16 09:34:00,
2013-01-16 04:39:00,69.1,67.3,30.04,East,92,8.0,11.0,94,0.00,,,0.00,meteohub,2013-01-16 09:39:00,
2013-01-16 04:45:00,68.9,67.1,30.05,East,91,3.0,11.0,94,0.00,,,0.00,meteohub,2013-01-16 09:45:00,
2013-01-16 04:50:00,68.9,67.1,30.05,ESE,102,2.0,11.0,94,0.00,,,0.00,meteohub,2013-01-16 09:50:00,
2013-01-16 04:55:00,68.9,67.1,30.05,East,95,3.0,11.0,94,0.00,,,0.00,meteohub,2013-01-16 09:55:00,
2013-01-16 05:00:00,68.7,66.9,30.05,East,89,6.0,10.0,94,0.00,,,0.00,meteohub,2013-01-16 10:00:00,
2013-01-16 05:06:00,68.5,66.7,30.05,East,89,2.0,10.0,94,0.00,,,0.00,meteohub,2013-01-16 10:06:00,
2013-01-16 05:11:00,68.5,66.7,30.05,East,89,5.0,8.0,94,0.00,,,0.00,meteohub,2013-01-16 10:11:00,
2013-01-16 05:16:00,68.5,66.7,30.05,East,90,1.0,8.0,94,0.00,,,0.00,meteohub,2013-01-16 10:16:00,
2013-01-16 05:22:00,68.5,66.7,30.05,East,92,7.0,8.0,94,0.00,,,0.00,meteohub,2013-01-16 10:22:00,
2013-01-16 05:27:00,68.5,66.7,30.05,East,92,0.0,8.0,94,0.00,,,0.00,meteohub,2013-01-16 10:27:00,
2013-01-16 05:32:00,68.5,66.7,30.05,East,92,0.0,8.0,94,0.00,,,0.00,meteohub,2013-01-16 10:32:00,
2013-01-16 05:37:00,68.5,66.7,30.05,East,92,1.0,7.0,94,0.00,,,0.00,meteohub,2013-01-16 10:37:00,
2013-01-16 05:42:00,68.5,66.7,30.05,East,92,0.0,6.0,94,0.00,,,0.00,meteohub,2013-01-16 10:42:00,
2013-01-16 05:47:00,68.4,66.6,30.05,East,92,0.0,6.0,94,0.00,,,0.00,meteohub,2013-01-16 10:47:00,
2013-01-16 05:52:00,68.4,66.9,30.06,East,92,1.0,6.0,95,0.00,,,0.00,meteohub,2013-01-16 10:52:00,
2013-01-16 05:57:00,68.4,66.9,30.06,East,92,0.0,6.0,95,0.00,,,0.00,meteohub,2013-01-16 10:57:00,
2013-01-16 06:03:00,68.2,66.4,30.06,East,93,3.0,6.0,94,0.00,,,0.00,meteohub,2013-01-16 11:03:00,
2013-01-16 06:08:00,68.4,66.9,30.06,East,92,0.0,6.0,95,0.00,,,0.00,meteohub,2013-01-16 11:08:00,
2013-01-16 06:13:00,68.4,66.9,30.06,East,92,0.0,6.0,95,0.00,,,0.00,meteohub,2013-01-16 11:13:00,
2013-01-16 06:18:00,68.4,66.9,30.06,East,92,2.0,6.0,95,0.00,,,0.00,meteohub,2013-01-16 11:18:00,
2013-01-16 06:23:00,68.2,66.7,30.06,East,92,0.0,5.0,95,0.00,,,0.00,meteohub,2013-01-16 11:23:00,
2013-01-16 06:29:00,68.2,66.7,30.06,East,92,1.0,5.0,95,0.00,,,0.00,meteohub,2013-01-16 11:29:00,
2013-01-16 06:34:00,68.2,66.7,30.06,East,92,2.0,3.0,95,0.00,,,0.00,meteohub,2013-01-16 11:34:00,
2013-01-16 06:39:00,68.2,66.7,30.06,East,92,1.0,3.0,95,0.00,,,0.00,meteohub,2013-01-16 11:39:00,
2013-01-16 06:44:00,68.2,66.7,30.06,East,92,2.0,6.0,95,0.00,,,0.00,meteohub,2013-01-16 11:44:00,
2013-01-16 06:49:00,68.2,66.7,30.06,East,92,1.0,7.0,95,0.00,,,0.00,meteohub,2013-01-16 11:49:00,
2013-01-16 06:54:00,68.2,66.7,30.06,East,92,0.0,7.0,95,0.00,,,0.00,meteohub,2013-01-16 11:54:00,
2013-01-16 06:59:00,68.2,66.7,30.06,East,92,0.0,7.0,95,0.00,,,0.00,meteohub,2013-01-16 11:59:00,
2013-01-16 07:04:00,68.4,66.9,30.06,East,92,0.0,6.0,95,0.00,,,0.00,meteohub,2013-01-16 12:04:00,
2013-01-16 07:09:00,68.4,66.9,30.07,East,92,0.0,6.0,95,0.00,,,0.00,meteohub,2013-01-16 12:09:00,
2013-01-16 07:14:00,68.4,66.9,30.07,East,92,1.0,5.0,95,0.00,,,0.00,meteohub,2013-01-16 12:14:00,
2013-01-16 07:19:00,68.4,66.9,30.07,East,92,5.0,5.0,95,0.00,,,0.00,meteohub,2013-01-16 12:19:00,
2013-01-16 07:24:00,68.4,66.9,30.07,East,92,5.0,5.0,95,0.00,,,0.00,meteohub,2013-01-16 12:24:00,
2013-01-16 07:30:00,68.4,66.9,30.07,East,93,0.0,5.0,95,0.00,,,0.00,meteohub,2013-01-16 12:30:00,
2013-01-16 07:35:00,68.4,66.9,30.08,East,93,0.0,6.0,95,0.00,,,0.00,meteohub,2013-01-16 12:35:00,
2013-01-16 07:40:00,68.5,66.7,30.08,East,93,0.0,6.0,94,0.00,,,0.00,meteohub,2013-01-16 12:40:00,
2013-01-16 07:45:00,68.5,66.7,30.08,East,93,0.0,5.0,94,0.00,,,0.00,meteohub,2013-01-16 12:45:00,
2013-01-16 07:50:00,68.5,66.7,30.08,East,93,0.0,5.0,94,0.00,,,0.00,meteohub,2013-01-16 12:50:00,
2013-01-16 07:55:00,68.7,66.9,30.08,East,93,0.0,5.0,94,0.00,,,0.00,meteohub,2013-01-16 12:55:00,
2013-01-16 08:00:00,68.7,66.9,30.08,East,93,6.0,6.0,94,0.00,,,0.00,meteohub,2013-01-16 13:00:00,
2013-01-16 08:05:00,68.7,66.9,30.09,East,93,0.0,8.0,94,0.00,,,0.00,meteohub,2013-01-16 13:05:00,
2013-01-16 08:10:00,69.1,67.3,30.09,East,93,1.0,8.0,94,0.00,,,0.00,meteohub,2013-01-16 13:10:00,
2013-01-16 08:16:00,69.1,67.3,30.09,East,93,1.0,8.0,94,0.00,,,0.00,meteohub,2013-01-16 13:16:00,
2013-01-16 08:21:00,69.4,67.6,30.09,East,93,0.0,3.0,94,0.00,,,0.00,meteohub,2013-01-16 13:21:00,
2013-01-16 08:26:00,69.8,67.6,30.09,East,93,6.0,6.0,93,0.00,,,0.00,meteohub,2013-01-16 13:26:00,
2013-01-16 08:31:00,70.2,67.6,30.09,East,93,0.0,7.0,92,0.00,,,0.00,meteohub,2013-01-16 13:31:00,
2013-01-16 08:36:00,70.2,67.5,30.09,East,93,7.0,8.0,91,0.00,,,0.00,meteohub,2013-01-16 13:36:00,
2013-01-16 08:41:00,70.2,67.1,30.09,East,93,7.0,8.0,90,0.00,,,0.00,meteohub,2013-01-16 13:41:00,
2013-01-16 08:46:00,70.2,67.1,30.09,East,92,6.0,9.0,90,0.00,,,0.00,meteohub,2013-01-16 13:46:00,
2013-01-16 08:51:00,70.3,67.3,30.09,East,92,5.0,9.0,90,0.00,,,0.00,meteohub,2013-01-16 13:51:00,
2013-01-16 08:56:00,70.5,67.1,30.09,East,88,5.0,9.0,89,0.00,,,0.00,meteohub,2013-01-16 13:56:00,
2013-01-16 09:02:00,71.1,67.6,30.09,East,88,5.0,8.0,89,0.00,,,0.00,meteohub,2013-01-16 14:02:00,
2013-01-16 09:07:00,71.2,67.8,30.10,East,88,5.0,8.0,89,0.00,,,0.00,meteohub,2013-01-16 14:07:00,
2013-01-16 09:12:00,71.8,68.0,30.10,East,88,7.0,7.0,88,0.00,,,0.00,meteohub,2013-01-16 14:12:00,
2013-01-16 09:17:00,72.0,67.8,30.10,East,88,3.0,7.0,87,0.00,,,0.00,meteohub,2013-01-16 14:17:00,
2013-01-16 09:22:00,72.3,67.8,30.10,East,88,5.0,7.0,86,0.00,,,0.00,meteohub,2013-01-16 14:22:00,
2013-01-16 09:27:00,72.9,68.0,30.10,East,88,3.0,7.0,85,0.00,,,0.00,meteohub,2013-01-16 14:27:00,
2013-01-16 09:32:00,73.0,68.0,30.11,East,87,2.0,7.0,84,0.00,,,0.00,meteohub,2013-01-16 14:32:00,
2013-01-16 09:37:00,73.4,68.2,30.11,East,86,5.0,8.0,84,0.00,,,0.00,meteohub,2013-01-16 14:37:00,
2013-01-16 09:42:00,73.8,68.4,30.11,East,86,2.0,8.0,83,0.00,,,0.00,meteohub,2013-01-16 14:42:00,
2013-01-16 09:47:00,74.1,68.2,30.11,East,86,3.0,8.0,82,0.00,,,0.00,meteohub,2013-01-16 14:47:00,
2013-01-16 09:52:00,74.5,68.5,30.11,East,92,5.0,8.0,82,0.00,,,0.00,meteohub,2013-01-16 14:52:00,
2013-01-16 09:57:00,74.8,68.9,30.11,East,92,0.0,7.0,82,0.00,,,0.00,meteohub,2013-01-16 14:57:00,
2013-01-16 10:02:00,75.2,68.5,30.11,East,92,3.0,7.0,80,0.00,,,0.00,meteohub,2013-01-16 15:02:00,
2013-01-16 10:07:00,75.4,68.4,30.11,East,85,3.0,6.0,79,0.00,,,0.00,meteohub,2013-01-16 15:07:00,
2013-01-16 10:12:00,75.4,67.6,30.11,East,88,5.0,8.0,77,0.00,,,0.00,meteohub,2013-01-16 15:12:00,
2013-01-16 10:17:00,75.2,67.8,30.11,East,88,2.0,10.0,78,0.00,,,0.00,meteohub,2013-01-16 15:17:00,
2013-01-16 10:22:00,75.4,68.4,30.11,East,89,2.0,10.0,79,0.00,,,0.00,meteohub,2013-01-16 15:22:00,
2013-01-16 10:27:00,75.6,67.8,30.11,East,88,6.0,10.0,77,0.00,,,0.00,meteohub,2013-01-16 15:27:00,
2013-01-16 10:32:00,75.7,68.4,30.11,East,94,7.0,10.0,78,0.00,,,0.00,meteohub,2013-01-16 15:32:00,
2013-01-16 10:37:00,75.7,68.4,30.10,East,96,2.0,10.0,78,0.00,,,0.00,meteohub,2013-01-16 15:37:00,
2013-01-16 10:42:00,75.9,68.5,30.10,ESE,109,2.0,9.0,78,0.00,,,0.00,meteohub,2013-01-16 15:42:00,
2013-01-16 10:47:00,76.1,68.4,30.10,ESE,109,9.0,9.0,77,0.00,,,0.00,meteohub,2013-01-16 15:47:00,
2013-01-16 10:52:00,76.3,68.2,30.10,East,90,5.0,10.0,76,0.00,,,0.00,meteohub,2013-01-16 15:52:00,
2013-01-16 10:57:00,76.3,68.2,30.10,East,90,8.0,10.0,76,0.00,,,0.00,meteohub,2013-01-16 15:57:00,
2013-01-16 11:02:00,76.5,68.0,30.09,East,90,8.0,10.0,75,0.00,,,0.00,meteohub,2013-01-16 16:02:00,
2013-01-16 11:07:00,76.5,68.0,30.09,East,90,6.0,10.0,75,0.00,,,0.00,meteohub,2013-01-16 16:07:00,
2013-01-16 11:12:00,76.5,68.4,30.09,East,89,9.0,10.0,76,0.00,,,0.00,meteohub,2013-01-16 16:12:00,
2013-01-16 11:17:00,76.5,68.0,30.08,ENE,77,5.0,11.0,75,0.00,,,0.00,meteohub,2013-01-16 16:17:00,
2013-01-16 11:22:00,76.6,68.5,30.08,East,91,3.0,11.0,76,0.00,,,0.00,meteohub,2013-01-16 16:22:00,
2013-01-16 11:27:00,76.6,68.2,30.08,East,87,7.0,11.0,75,0.00,,,0.00,meteohub,2013-01-16 16:27:00,
2013-01-16 11:32:00,77.2,69.1,30.08,East,92,9.0,9.0,76,0.00,,,0.00,meteohub,2013-01-16 16:32:00,
2013-01-16 11:37:00,77.0,68.5,30.08,East,92,10.0,10.0,75,0.00,,,0.00,meteohub,2013-01-16 16:37:00,
2013-01-16 11:42:00,76.8,68.4,30.08,East,94,3.0,10.0,75,0.00,,,0.00,meteohub,2013-01-16 16:42:00,
2013-01-16 11:47:00,77.0,68.5,30.07,East,90,2.0,10.0,75,0.00,,,0.00,meteohub,2013-01-16 16:47:00,
2013-01-16 11:52:00,77.7,69.1,30.07,East,85,1.0,10.0,75,0.00,,,0.00,meteohub,2013-01-16 16:52:00,
2013-01-16 11:57:00,78.4,69.4,30.07,East,81,2.0,8.0,74,0.00,,,0.00,meteohub,2013-01-16 16:57:00,
2013-01-16 12:02:00,79.0,68.7,30.06,ENE,74,2.0,7.0,71,0.00,,,0.00,meteohub,2013-01-16 17:02:00,
2013-01-16 12:07:00,79.3,69.1,30.06,ENE,74,1.0,6.0,71,0.00,,,0.00,meteohub,2013-01-16 17:07:00,
2013-01-16 12:12:00,79.5,68.9,30.06,ENE,73,1.0,5.0,70,0.00,,,0.00,meteohub,2013-01-16 17:12:00,
2013-01-16 12:17:00,79.9,68.7,30.06,ENE,72,1.0,7.0,69,0.00,,,0.00,meteohub,2013-01-16 17:17:00,
2013-01-16 12:22:00,79.7,68.5,30.06,ENE,71,3.0,7.0,69,0.00,,,0.00,meteohub,2013-01-16 17:22:00,
2013-01-16 12:27:00,79.9,69.3,30.06,ENE,71,2.0,5.0,70,0.00,,,0.00,meteohub,2013-01-16 17:27:00,
2013-01-16 12:32:00,80.1,68.9,30.06,ENE,71,3.0,5.0,69,0.00,,,0.00,meteohub,2013-01-16 17:32:00,
2013-01-16 12:37:00,79.9,68.7,30.05,ENE,71,3.0,5.0,69,0.00,,,0.00,meteohub,2013-01-16 17:37:00,
2013-01-16 12:42:00,79.3,69.1,30.05,ENE,71,1.0,5.0,71,0.00,,,0.00,meteohub,2013-01-16 17:42:00,
2013-01-16 12:47:00,79.3,69.1,30.05,ENE,67,1.0,5.0,71,0.00,,,0.00,meteohub,2013-01-16 17:47:00,
2013-01-16 12:52:00,79.2,69.3,30.05,ENE,67,4.0,7.0,72,0.00,,,0.00,meteohub,2013-01-16 17:52:00,
2013-01-16 12:57:00,79.0,69.3,30.04,ENE,67,5.0,9.0,72,0.00,,,0.00,meteohub,2013-01-16 17:57:00,
2013-01-16 13:02:00,79.2,69.3,30.04,ENE,66,4.0,9.0,72,0.00,,,0.00,meteohub,2013-01-16 18:02:00,
2013-01-16 13:07:00,79.3,69.1,30.04,ENE,66,2.0,9.0,71,0.00,,,0.00,meteohub,2013-01-16 18:07:00,
2013-01-16 13:12:00,79.5,68.9,30.04,ENE,63,1.0,7.0,70,0.00,,,0.00,meteohub,2013-01-16 18:12:00,
2013-01-16 13:17:00,79.5,68.0,30.04,ENE,63,2.0,9.0,68,0.00,,,0.00,meteohub,2013-01-16 18:17:00,
2013-01-16 13:22:00,79.3,68.7,30.03,ENE,65,2.0,9.0,70,0.00,,,0.00,meteohub,2013-01-16 18:22:00,
2013-01-16 13:27:00,79.5,68.5,30.03,ENE,65,4.0,9.0,69,0.00,,,0.00,meteohub,2013-01-16 18:27:00,
2013-01-16 13:32:00,80.4,68.9,30.03,ENE,64,3.0,8.0,68,0.00,,,0.00,meteohub,2013-01-16 18:32:00,
2013-01-16 13:37:00,81.5,68.5,30.03,East,81,1.0,8.0,65,0.00,,,0.00,meteohub,2013-01-16 18:37:00,
2013-01-16 13:42:00,81.7,67.8,30.03,East,80,0.0,9.0,63,0.00,,,0.00,meteohub,2013-01-16 18:42:00,
2013-01-16 13:47:00,82.6,67.8,30.03,East,80,3.0,9.0,61,0.00,,,0.00,meteohub,2013-01-16 18:47:00,
2013-01-16 13:52:00,82.9,65.7,30.03,East,90,3.0,9.0,56,0.00,,,0.00,meteohub,2013-01-16 18:52:00,
2013-01-16 13:57:00,82.0,65.8,30.02,East,90,2.0,7.0,58,0.00,,,0.00,meteohub,2013-01-16 18:57:00,
2013-01-16 14:02:00,81.1,64.4,30.02,SSW,192,4.0,8.0,57,0.00,,,0.00,meteohub,2013-01-16 19:02:00,
2013-01-16 14:07:00,81.0,62.2,30.02,South,188,1.0,8.0,53,0.00,,,0.00,meteohub,2013-01-16 19:07:00,
2013-01-16 14:12:00,81.0,64.8,30.02,SE,133,2.0,8.0,58,0.00,,,0.00,meteohub,2013-01-16 19:12:00,
2013-01-16 14:17:00,81.7,68.7,30.02,ESE,107,1.0,7.0,65,0.00,,,0.00,meteohub,2013-01-16 19:17:00,
2013-01-16 14:22:00,81.7,67.5,30.02,East,92,2.0,5.0,62,0.00,,,0.00,meteohub,2013-01-16 19:22:00,
2013-01-16 14:27:00,81.3,67.1,30.02,East,90,1.0,7.0,62,0.00,,,0.00,meteohub,2013-01-16 19:27:00,
2013-01-16 14:32:00,81.9,68.0,30.02,ENE,77,3.0,7.0,63,0.00,,,0.00,meteohub,2013-01-16 19:32:00,
2013-01-16 14:37:00,82.0,68.2,30.01,ENE,76,1.0,6.0,63,0.00,,,0.00,meteohub,2013-01-16 19:37:00,
2013-01-16 14:42:00,82.2,66.9,30.01,ENE,75,2.0,6.0,60,0.00,,,0.00,meteohub,2013-01-16 19:42:00,
2013-01-16 14:47:00,82.6,68.7,30.01,ENE,76,2.0,5.0,63,0.00,,,0.00,meteohub,2013-01-16 19:47:00,
2013-01-16 14:52:00,82.0,68.2,30.01,ENE,68,1.0,7.0,63,0.00,,,0.00,meteohub,2013-01-16 19:52:00,
2013-01-16 14:57:00,82.0,67.6,30.01,ENE,68,1.0,7.0,62,0.00,,,0.00,meteohub,2013-01-16 19:57:00,
2013-01-16 15:02:00,82.2,68.9,30.01,ENE,69,3.0,7.0,64,0.00,,,0.00,meteohub,2013-01-16 20:02:00,
2013-01-16 15:07:00,82.2,67.8,30.01,ENE,67,3.0,5.0,62,0.00,,,0.00,meteohub,2013-01-16 20:07:00,
2013-01-16 15:12:00,82.4,66.6,30.01,ENE,67,3.0,5.0,59,0.00,,,0.00,meteohub,2013-01-16 20:12:00,
2013-01-16 15:17:00,82.8,66.0,30.01,ENE,65,0.0,5.0,57,0.00,,,0.00,meteohub,2013-01-16 20:17:00,
2013-01-16 15:22:00,82.9,66.2,30.01,ENE,65,1.0,5.0,57,0.00,,,0.00,meteohub,2013-01-16 20:22:00,
2013-01-16 15:27:00,82.9,66.6,30.01,ENE,65,0.0,5.0,58,0.00,,,0.00,meteohub,2013-01-16 20:27:00,
2013-01-16 15:32:00,82.9,67.1,30.01,ENE,65,1.0,4.0,59,0.00,,,0.00,meteohub,2013-01-16 20:32:00,
2013-01-16 15:37:00,82.8,68.0,30.01,ENE,65,1.0,3.0,61,0.00,,,0.00,meteohub,2013-01-16 20:37:00,
2013-01-16 15:43:00,82.6,67.8,30.01,ENE,65,1.0,3.0,61,0.00,,,0.00,meteohub,2013-01-16 20:43:00,
2013-01-16 15:48:00,82.4,67.6,30.01,ENE,65,0.0,3.0,61,0.00,,,0.00,meteohub,2013-01-16 20:48:00,
2013-01-16 15:53:00,82.4,67.6,30.01,ENE,65,0.0,4.0,61,0.00,,,0.00,meteohub,2013-01-16 20:53:00,
2013-01-16 15:58:00,82.8,64.4,30.01,ENE,65,0.0,4.0,54,0.00,,,0.00,meteohub,2013-01-16 20:58:00,
2013-01-16 16:03:00,82.9,65.7,30.01,ENE,65,1.0,3.0,56,0.00,,,0.00,meteohub,2013-01-16 21:03:00,
2013-01-16 16:08:00,83.1,67.8,30.02,ENE,65,0.0,3.0,60,0.00,,,0.00,meteohub,2013-01-16 21:08:00,
2013-01-16 16:13:00,82.9,64.6,30.02,ENE,65,0.0,3.0,54,0.00,,,0.00,meteohub,2013-01-16 21:13:00,
2013-01-16 16:18:00,82.2,65.5,30.02,ENE,65,3.0,3.0,57,0.00,,,0.00,meteohub,2013-01-16 21:18:00,
2013-01-16 16:23:00,80.6,65.5,30.02,ENE,65,0.0,4.0,60,0.00,,,0.00,meteohub,2013-01-16 21:23:00,
2013-01-16 16:28:00,80.4,63.9,30.02,East,90,6.0,6.0,57,0.00,,,0.00,meteohub,2013-01-16 21:28:00,
2013-01-16 16:33:00,80.1,63.9,30.02,ESE,120,2.0,7.0,58,0.00,,,0.00,meteohub,2013-01-16 21:33:00,
2013-01-16 16:39:00,79.9,64.2,30.02,South,177,3.0,7.0,59,0.00,,,0.00,meteohub,2013-01-16 21:39:00,
2013-01-16 16:44:00,79.2,64.0,30.02,SSW,197,4.0,7.0,60,0.00,,,0.00,meteohub,2013-01-16 21:44:00,
2013-01-16 16:49:00,78.6,63.1,30.02,SW,214,0.0,7.0,59,0.00,,,0.00,meteohub,2013-01-16 21:49:00,
2013-01-16 16:54:00,78.4,64.4,30.02,SSW,207,7.0,7.0,62,0.00,,,0.00,meteohub,2013-01-16 21:54:00,
2013-01-16 16:59:00,77.7,63.7,30.02,SW,223,8.0,9.0,62,0.00,,,0.00,meteohub,2013-01-16 21:59:00,
2013-01-16 17:04:00,76.8,64.2,30.02,SW,216,3.0,11.0,65,0.00,,,0.00,meteohub,2013-01-16 22:04:00,
2013-01-16 17:09:00,76.6,64.4,30.02,WSW,239,3.0,11.0,66,0.00,,,0.00,meteohub,2013-01-16 22:09:00,
2013-01-16 17:14:00,76.6,64.4,30.02,SW,222,6.0,11.0,66,0.00,,,0.00,meteohub,2013-01-16 22:14:00,
2013-01-16 17:20:00,76.3,64.9,30.02,SW,231,6.0,9.0,68,0.00,,,0.00,meteohub,2013-01-16 22:20:00,
2013-01-16 17:25:00,75.9,64.2,30.02,SW,227,4.0,8.0,67,0.00,,,0.00,meteohub,2013-01-16 22:25:00,
2013-01-16 17:30:00,75.7,64.4,30.02,SW,220,4.0,8.0,68,0.00,,,0.00,meteohub,2013-01-16 22:30:00,
2013-01-16 17:35:00,75.6,64.2,30.02,SW,221,3.0,9.0,68,0.00,,,0.00,meteohub,2013-01-16 22:35:00,
2013-01-16 17:40:00,75.4,64.9,30.02,SSW,202,4.0,9.0,70,0.00,,,0.00,meteohub,2013-01-16 22:40:00,
2013-01-16 17:45:00,74.8,64.4,30.03,SSW,207,7.0,8.0,70,0.00,,,0.00,meteohub,2013-01-16 22:45:00,
2013-01-16 17:50:00,74.7,65.1,30.03,SSW,209,2.0,9.0,72,0.00,,,0.00,meteohub,2013-01-16 22:50:00,
2013-01-16 17:55:00,74.5,64.9,30.03,SW,236,6.0,9.0,72,0.00,,,0.00,meteohub,2013-01-16 22:55:00,
2013-01-16 18:00:00,74.1,64.9,30.03,SW,231,2.0,9.0,73,0.00,,,0.00,meteohub,2013-01-16 23:00:00,
2013-01-16 18:05:00,73.9,65.5,30.03,SSW,213,5.0,7.0,75,0.00,,,0.00,meteohub,2013-01-16 23:05:00,
2013-01-16 18:11:00,73.8,65.3,30.03,SSW,198,7.0,7.0,75,0.00,,,0.00,meteohub,2013-01-16 23:11:00,
2013-01-16 18:16:00,73.6,65.5,30.03,SSW,196,7.0,8.0,76,0.00,,,0.00,meteohub,2013-01-16 23:16:00,
2013-01-16 18:21:00,73.4,65.7,30.03,SW,221,3.0,8.0,77,0.00,,,0.00,meteohub,2013-01-16 23:21:00,
2013-01-16 18:26:00,73.2,65.7,30.03,SSW,201,4.0,8.0,77,0.00,,,0.00,meteohub,2013-01-16 23:26:00,
2013-01-16 18:31:00,73.0,65.8,30.03,SW,235,1.0,8.0,78,0.00,,,0.00,meteohub,2013-01-16 23:31:00,
2013-01-16 18:36:00,73.0,66.2,30.03,SW,223,2.0,7.0,79,0.00,,,0.00,meteohub,2013-01-16 23:36:00,
2013-01-16 18:41:00,72.9,66.0,30.03,SSW,207,4.0,7.0,79,0.00,,,0.00,meteohub,2013-01-16 23:41:00,
2013-01-16 18:46:00,72.9,66.4,30.03,SW,219,5.0,7.0,80,0.00,,,0.00,meteohub,2013-01-16 23:46:00,
2013-01-16 18:51:00,72.7,66.2,30.03,SW,231,3.0,8.0,80,0.00,,,0.00,meteohub,2013-01-16 23:51:00,
2013-01-16 18:56:00,72.5,66.0,30.03,SW,218,4.0,8.0,80,0.00,,,0.00,meteohub,2013-01-16 23:56:00,
2013-01-16 19:01:00,72.3,66.2,30.03,SW,217,3.0,6.0,81,0.00,,,0.00,meteohub,2013-01-17 00:01:00,
2013-01-16 19:07:00,72.1,66.0,30.03,SSW,207,3.0,6.0,81,0.00,,,0.00,meteohub,2013-01-17 00:07:00,
2013-01-16 19:12:00,72.1,66.0,30.04,SSW,211,1.0,7.0,81,0.00,,,0.00,meteohub,2013-01-17 00:12:00,
2013-01-16 19:17:00,72.1,66.4,30.04,SSW,211,0.0,7.0,82,0.00,,,0.00,meteohub,2013-01-17 00:17:00,
2013-01-16 19:22:00,72.0,66.2,30.04,SSW,211,3.0,7.0,82,0.00,,,0.00,meteohub,2013-01-17 00:22:00,
2013-01-16 19:27:00,71.8,66.4,30.04,SSW,211,2.0,5.0,83,0.00,,,0.00,meteohub,2013-01-17 00:27:00,
2013-01-16 19:32:00,71.8,66.4,30.04,SSW,210,2.0,6.0,83,0.00,,,0.00,meteohub,2013-01-17 00:32:00,
2013-01-16 19:37:00,71.8,66.7,30.04,SSW,210,0.0,6.0,84,0.00,,,0.00,meteohub,2013-01-17 00:37:00,
2013-01-16 19:42:00,71.4,66.4,30.04,SSW,210,0.0,6.0,84,0.00,,,0.00,meteohub,2013-01-17 00:42:00,
2013-01-16 19:47:00,71.4,66.4,30.04,SSW,210,1.0,6.0,84,0.00,,,0.00,meteohub,2013-01-17 00:47:00,
2013-01-16 19:52:00,71.4,66.7,30.04,SSW,210,0.0,6.0,85,0.00,,,0.00,meteohub,2013-01-17 00:52:00,
2013-01-16 19:57:00,71.4,66.7,30.04,SSW,210,1.0,6.0,85,0.00,,,0.00,meteohub,2013-01-17 00:57:00,
2013-01-16 20:02:00,71.4,67.1,30.04,SSW,210,1.0,6.0,86,0.00,,,0.00,meteohub,2013-01-17 01:02:00,
2013-01-16 20:07:00,71.2,66.9,30.04,SSW,202,2.0,6.0,86,0.00,,,0.00,meteohub,2013-01-17 01:07:00,
2013-01-16 20:12:00,71.2,66.9,30.04,SSW,202,5.0,6.0,86,0.00,,,0.00,meteohub,2013-01-17 01:12:00,
2013-01-16 20:17:00,71.2,66.9,30.04,SSW,203,5.0,7.0,86,0.00,,,0.00,meteohub,2013-01-17 01:17:00,
2013-01-16 20:22:00,71.1,66.9,30.04,SSW,203,4.0,7.0,87,0.00,,,0.00,meteohub,2013-01-17 01:22:00,
2013-01-16 20:27:00,71.1,66.9,30.04,SSW,203,3.0,7.0,87,0.00,,,0.00,meteohub,2013-01-17 01:27:00,
2013-01-16 20:32:00,71.1,67.3,30.04,SSW,203,0.0,6.0,88,0.00,,,0.00,meteohub,2013-01-17 01:32:00,
2013-01-16 20:37:00,71.1,67.3,30.04,SSW,198,6.0,6.0,88,0.00,,,0.00,meteohub,2013-01-17 01:37:00,
2013-01-16 20:42:00,71.1,67.3,30.04,SSW,196,4.0,6.0,88,0.00,,,0.00,meteohub,2013-01-17 01:42:00,
2013-01-16 20:47:00,71.1,67.3,30.04,SSW,197,3.0,6.0,88,0.00,,,0.00,meteohub,2013-01-17 01:47:00,
2013-01-16 20:52:00,70.9,67.1,30.04,SSW,202,3.0,6.0,88,0.00,,,0.00,meteohub,2013-01-17 01:52:00,
2013-01-16 20:57:00,70.9,67.1,30.05,SSW,202,4.0,7.0,88,0.00,,,0.00,meteohub,2013-01-17 01:57:00,
2013-01-16 21:02:00,70.7,66.9,30.05,SSW,202,4.0,7.0,88,0.00,,,0.00,meteohub,2013-01-17 02:02:00,
2013-01-16 21:07:00,70.5,66.7,30.05,SSW,202,3.0,6.0,88,0.00,,,0.00,meteohub,2013-01-17 02:07:00,
2013-01-16 21:12:00,70.5,66.7,30.04,SSW,202,1.0,6.0,88,0.00,,,0.00,meteohub,2013-01-17 02:12:00,
2013-01-16 21:17:00,70.3,66.9,30.04,SSW,202,1.0,5.0,89,0.00,,,0.00,meteohub,2013-01-17 02:17:00,
2013-01-16 21:22:00,70.2,66.7,30.04,SSW,202,0.0,5.0,89,0.00,,,0.00,meteohub,2013-01-17 02:22:00,
2013-01-16 21:27:00,70.0,66.6,30.04,SSW,202,2.0,4.0,89,0.00,,,0.00,meteohub,2013-01-17 02:27:00,
2013-01-16 21:32:00,70.0,66.6,30.04,SSW,202,0.0,4.0,89,0.00,,,0.00,meteohub,2013-01-17 02:32:00,
2013-01-16 21:37:00,69.8,66.4,30.04,SSW,202,0.0,4.0,89,0.00,,,0.00,meteohub,2013-01-17 02:37:00,
2013-01-16 21:42:00,69.4,66.0,30.04,SSW,202,0.0,3.0,89,0.00,,,0.00,meteohub,2013-01-17 02:42:00,
2013-01-16 21:47:00,69.4,66.4,30.04,SSW,202,0.0,1.0,90,0.00,,,0.00,meteohub,2013-01-17 02:47:00,
2013-01-16 21:52:00,69.3,66.2,30.04,SSW,202,0.0,2.0,90,0.00,,,0.00,meteohub,2013-01-17 02:52:00,
2013-01-16 21:57:00,69.3,66.2,30.04,SSW,202,0.0,2.0,90,0.00,,,0.00,meteohub,2013-01-17 02:57:00,
2013-01-16 22:02:00,69.1,66.0,30.04,SSW,202,0.0,2.0,90,0.00,,,0.00,meteohub,2013-01-17 03:02:00,
2013-01-16 22:07:00,69.1,66.0,30.04,SSW,202,0.0,1.0,90,0.00,,,0.00,meteohub,2013-01-17 03:07:00,
2013-01-16 22:13:00,68.9,65.8,30.04,SSW,202,0.0,1.0,90,0.00,,,0.00,meteohub,2013-01-17 03:13:00,
2013-01-16 22:18:00,68.7,65.7,30.04,SSW,202,0.0,1.0,90,0.00,,,0.00,meteohub,2013-01-17 03:18:00,
2013-01-16 22:23:00,68.5,65.8,30.04,SSW,202,0.0,1.0,91,0.00,,,0.00,meteohub,2013-01-17 03:23:00,
2013-01-16 22:28:00,68.5,65.8,30.04,SSW,202,0.0,1.0,91,0.00,,,0.00,meteohub,2013-01-17 03:28:00,
2013-01-16 22:33:00,68.4,65.7,30.04,SSW,202,0.0,1.0,91,0.00,,,0.00,meteohub,2013-01-17 03:33:00,
2013-01-16 22:38:00,68.5,65.8,30.04,SSW,202,0.0,1.0,91,0.00,,,0.00,meteohub,2013-01-17 03:38:00,
2013-01-16 22:43:00,68.7,66.4,30.03,SSW,202,0.0,1.0,92,0.00,,,0.00,meteohub,2013-01-17 03:43:00,
2013-01-16 22:48:00,69.1,66.7,30.03,SSW,202,0.0,2.0,92,0.00,,,0.00,meteohub,2013-01-17 03:48:00,
2013-01-16 22:53:00,68.9,66.2,30.03,SSW,202,0.0,3.0,91,0.00,,,0.00,meteohub,2013-01-17 03:53:00,
2013-01-16 22:58:00,68.7,66.0,30.03,SSW,202,1.0,3.0,91,0.00,,,0.00,meteohub,2013-01-17 03:58:00,
2013-01-16 23:04:00,68.5,65.8,30.03,SSW,202,0.0,3.0,91,0.00,,,0.00,meteohub,2013-01-17 04:04:00,
2013-01-16 23:09:00,68.4,65.7,30.04,SSW,202,0.0,2.0,91,0.00,,,0.00,meteohub,2013-01-17 04:09:00,
2013-01-16 23:14:00,68.4,66.0,30.04,SSW,202,0.0,2.0,92,0.00,,,0.00,meteohub,2013-01-17 04:14:00,
2013-01-16 23:19:00,68.4,66.0,30.04,SSW,202,0.0,1.0,92,0.00,,,0.00,meteohub,2013-01-17 04:19:00,
2013-01-16 23:24:00,68.5,66.2,30.04,SSW,202,0.0,1.0,92,0.00,,,0.00,meteohub,2013-01-17 04:24:00,
2013-01-16 23:29:00,68.4,66.0,30.04,SSW,202,0.0,2.0,92,0.00,,,0.00,meteohub,2013-01-17 04:29:00,
2013-01-16 23:34:00,68.2,65.8,30.04,SSW,202,0.0,2.0,92,0.00,,,0.00,meteohub,2013-01-17 04:34:00,
2013-01-16 23:39:00,68.2,65.8,30.04,SSW,202,0.0,2.0,92,0.00,,,0.00,meteohub,2013-01-17 04:39:00,
2013-01-16 23:44:00,68.0,65.7,30.04,SSW,202,0.0,1.0,92,0.00,,,0.00,meteohub,2013-01-17 04:44:00,
2013-01-16 23:50:00,67.8,65.7,30.04,SSW,202,0.0,0.0,93,0.00,,,0.00,meteohub,2013-01-17 04:50:00,
2013-01-16 23:55:00,68.2,66.4,30.04,SSW,202,0.0,0.0,94,0.00,,,0.00,meteohub,2013-01-17 04:55:00,